Time;durP1;ratioP1;P1;durP2;ratioP2;P2;SDS_P1;SDS_P2;PMS_P1;PMS_P2;Temp;Humidity;BMP_temperature;BMP_pressure;BME280_temperature;BME280_humidity;BME280_pressure;Samples;Min_cycle;Max_cycle;Signal;HPM_P1;HPM_P2
2024/02/29 00:01:14;;;;;;;;;26.50;25.75;;;;;16.51;73.65;101399.63;146603;654;47012;-73
2024/02/29 00:04:15;;;;;;;;;27.25;22.00;;;;;16.37;73.61;101353.72;146608;617;46010;-72
2024/02/29 00:07:16;;;;;;;;;31.50;25.75;;;;;16.57;73.59;101405.09;146609;595;45910;-74
2024/02/29 00:10:22;;;;;;;;;28.00;24.75;;;;;16.60;73.63;101384.28;146611;606;46013;-74
2024/02/29 00:13:17;;;;;;;;;26.25;24.50;;;;;16.57;73.65;101386.78;146607;571;46016;-73
2024/02/29 00:16:17;;;;;;;;;37.50;31.75;;;;;16.43;73.90;101377.50;146611;564;46029;-73
2024/02/29 00:19:41;;;;;;;;;34.25;30.50;;;;;16.45;74.05;101386.31;146605;638;47014;-73
2024/02/29 00:22:33;;;;;;;;;37.50;31.00;;;;;16.39;74.43;101386.97;146607;685;47010;-74
2024/02/29 00:25:46;;;;;;;;;31.50;25.00;;;;;16.23;74.25;101379.37;146605;635;47016;-73
2024/02/29 00:28:53;;;;;;;;;22.25;20.00;;;;;16.22;74.56;101380.19;146608;582;46010;-74
2024/02/29 00:32:00;;;;;;;;;22.75;21.50;;;;;16.06;74.68;101368.22;146601;566;46012;-75
2024/02/29 00:35:04;;;;;;;;;30.00;22.50;;;;;16.11;74.72;101386.75;146609;575;47010;-74
2024/02/29 00:37:58;;;;;;;;;27.75;23.00;;;;;16.03;75.55;101381.19;146606;591;47023;-74
2024/02/29 00:40:53;;;;;;;;;19.75;19.75;;;;;16.00;75.67;101377.56;146608;572;46035;-69
2024/02/29 00:43:59;;;;;;;;;20.25;19.25;;;;;15.99;75.25;101368.84;146605;569;46016;-68
2024/02/29 00:46:55;;;;;;;;;21.25;19.75;;;;;15.98;75.43;101368.75;146606;581;46020;-71
2024/02/29 00:49:53;;;;;;;;;21.25;21.00;;;;;15.94;75.41;101358.19;146605;593;46016;-71
2024/02/29 00:52:34;;;;;;;;;31.25;28.25;;;;;15.93;78.15;101356.41;146707;566;46022;-70
2024/02/29 00:55:36;;;;;;;;;38.50;32.00;;;;;15.93;76.50;101356.41;146617;610;46016;-74
2024/02/29 00:58:40;;;;;;;;;33.75;29.50;;;;;15.90;75.81;101355.37;146622;580;46020;-74
2024/02/29 01:01:38;;;;;;;;;34.50;29.00;;;;;15.88;76.22;101363.16;146613;592;46013;-74
2024/02/29 01:04:41;;;;;;;;;;;;;;;;;;;;;
2024/02/29 01:07:45;;;;;;;;;9.00;5.00;;;;;15.90;74.19;101363.25;146617;713;47015;-73
2024/02/29 01:10:45;;;;;;;;;8.25;7.25;;;;;15.97;73.76;101365.25;146628;579;46021;-71
2024/02/29 01:13:44;;;;;;;;;4.00;2.00;;;;;16.06;70.64;101377.81;146626;563;46916;-71
2024/02/29 01:16:48;;;;;;;;;3.33;1.00;;;;;16.24;69.48;101382.87;146629;581;46021;-72
2024/02/29 01:19:40;;;;;;;;;4.00;3.00;;;;;16.38;68.08;101379.03;146623;580;46014;-73
2024/02/29 01:22:37;;;;;;;;;3.67;1.00;;;;;16.50;67.22;101376.00;146626;606;46021;-72
2024/02/29 01:25:30;;;;;;;;;2.00;1.33;;;;;16.61;66.48;101382.53;146623;570;46016;-71
2024/02/29 01:28:27;;;;;;;;;2.67;2.00;;;;;16.72;66.51;101380.31;146629;607;48030;-71
2024/02/29 01:31:22;;;;;;;;;1.00;1.00;;;;;16.63;66.18;101355.59;146626;574;46016;-71
2024/02/29 01:34:20;;;;;;;;;1.00;0.33;;;;;16.83;66.16;101372.06;146628;654;46029;-74
2024/02/29 01:37:25;;;;;;;;;1.33;1.00;;;;;16.92;66.28;101378.47;146620;651;46016;-71
2024/02/29 01:40:39;;;;;;;;;2.67;2.00;;;;;16.82;66.01;101351.03;146629;591;46020;-70
2024/02/29 01:43:32;;;;;;;;;1.00;1.00;;;;;16.99;65.19;101373.47;146620;585;46016;-70
2024/02/29 01:46:37;;;;;;;;;;;;;;;;;;;;;
2024/02/29 01:49:34;;;;;;;;;2.00;1.00;;;;;17.03;65.03;101362.25;146622;571;46016;-70
2024/02/29 01:52:37;;;;;;;;;3.33;1.00;;;;;17.05;64.79;101357.97;146622;632;46021;-70
2024/02/29 01:55:48;;;;;;;;;1.67;1.00;;;;;17.06;65.54;101341.41;146613;599;47016;-71
2024/02/29 01:58:46;;;;;;;;;3.00;3.00;;;;;17.07;65.00;101339.69;146619;597;46010;-70
2024/02/29 02:01:57;;;;;;;;;1.33;1.33;;;;;17.09;65.21;101345.87;146615;584;47012;-69
2024/02/29 02:04:59;;;;;;;;;3.00;2.00;;;;;17.12;65.14;101339.84;146622;665;46020;-69
2024/02/29 02:08:10;;;;;;;;;4.00;2.33;;;;;17.11;65.84;101341.59;146609;750;48914;-69
2024/02/29 02:11:11;;;;;;;;;3.00;1.67;;;;;17.08;66.02;101334.50;146623;570;46020;-69
2024/02/29 02:14:08;;;;;;;;;9.67;6.67;;;;;17.05;67.36;101333.50;146615;660;46012;-70
2024/02/29 02:17:13;;;;;;;;;10.00;8.00;;;;;16.99;67.57;101331.56;146622;625;47012;-69
2024/02/29 02:20:14;;;;;;;;;13.00;8.33;;;;;16.95;67.71;101341.91;146613;578;46016;-69
2024/02/29 02:23:09;;;;;;;;;8.00;6.00;;;;;16.79;68.13;101338.75;146622;644;46011;-69
2024/02/29 02:26:08;;;;;;;;;11.00;9.50;;;;;16.87;68.57;101356.44;146615;650;46016;-74
2024/02/29 02:29:07;;;;;;;;;10.75;7.75;;;;;16.80;69.04;101369.31;146622;639;46020;-71
2024/02/29 02:32:10;;;;;;;;;6.75;3.75;;;;;16.72;70.56;101373.34;146613;592;46012;-71
2024/02/29 02:35:33;;;;;;;;;7.00;6.00;;;;;16.66;70.29;101367.88;146620;585;46020;-71
2024/02/29 02:38:31;;;;;;;;;9.67;6.00;;;;;16.62;70.12;101363.38;146614;658;46017;-72
2024/02/29 02:41:50;;;;;;;;;;;;;;;;;;;;;
2024/02/29 02:45:27;;;;;;;;;7.50;5.00;;;;;16.50;70.32;101355.94;146611;602;46016;-71
2024/02/29 02:48:39;;;;;;;;;7.67;6.33;;;;;16.56;72.20;101365.75;146618;587;47010;-71
2024/02/29 02:51:35;;;;;;;;;7.67;7.33;;;;;16.51;75.16;101360.38;146613;596;46016;-68
2024/02/29 02:54:36;;;;;;;;;8.00;5.33;;;;;16.45;75.89;101360.16;146620;576;46020;-71
2024/02/29 02:57:33;;;;;;;;;4.33;4.33;;;;;16.44;74.24;101358.34;146614;613;47012;-71
2024/02/29 03:00:38;;;;;;;;;7.00;5.67;;;;;16.41;74.23;101345.13;146621;585;47010;-70
2024/02/29 03:03:39;;;;;;;;;6.67;5.33;;;;;16.42;74.59;101354.78;146615;579;46913;-69
2024/02/29 03:06:36;;;;;;;;;10.00;8.33;;;;;16.43;74.58;101356.56;146621;640;46020;-69
2024/02/29 03:09:37;;;;;;;;;10.00;9.75;;;;;16.42;74.75;101354.78;146612;613;47016;-70
2024/02/29 03:12:36;;;;;;;;;15.25;11.50;;;;;16.38;77.88;101345.03;146615;652;47010;-74
2024/02/29 03:15:38;;;;;;;;;12.25;10.25;;;;;16.33;78.78;101360.56;146607;590;47016;-76
2024/02/29 03:18:34;;;;;;;;;11.75;10.00;;;;;16.29;77.90;101363.00;146611;597;46020;-73
2024/02/29 03:21:48;;;;;;;;;12.33;9.00;;;;;16.25;78.39;101354.12;146606;692;46017;-74
2024/02/29 03:24:45;;;;;;;;;10.00;7.00;;;;;16.18;80.96;101359.97;146618;564;46021;-79
2024/02/29 03:27:49;;;;;;;;;7.33;7.00;;;;;16.14;79.77;101364.22;146613;624;46016;-75
2024/02/29 03:30:45;;;;;;;;;8.33;6.33;;;;;16.12;78.83;101358.00;146618;669;46020;-71
2024/02/29 03:33:49;;;;;;;;;9.00;5.33;;;;;16.13;79.74;101365.00;146615;624;47016;-77
2024/02/29 03:36:39;;;;;;;;;6.25;6.25;;;;;16.11;80.26;101357.97;146707;559;46012;-81
2024/02/29 03:39:46;;;;;;;;;8.00;8.00;;;;;16.10;79.48;101343.97;146619;709;46944;-72
2024/02/29 03:42:46;;;;;;;;;7.00;5.00;;;;;16.09;78.06;101347.44;146620;585;47010;-70
2024/02/29 03:45:40;;;;;;;;;5.33;5.33;;;;;16.13;78.39;101343.19;146616;569;46017;-67
2024/02/29 03:48:42;;;;;;;;;6.67;5.00;;;;;16.02;78.42;101321.00;146622;617;46010;-71
2024/02/29 03:51:36;;;;;;;;;8.00;6.00;;;;;16.09;77.32;101325.63;146617;597;46017;-73
2024/02/29 03:54:41;;;;;;;;;7.75;7.00;;;;;16.23;75.55;101339.22;146621;601;47010;-70
2024/02/29 03:57:47;;;;;;;;;;;;;;;;;;;;;
2024/02/29 04:00:45;;;;;;;;;6.33;6.33;;;;;16.34;73.98;101327.44;146622;622;46010;-68
2024/02/29 04:03:51;;;;;;;;;6.00;5.00;;;;;16.33;72.77;101341.34;146618;597;46016;-71
2024/02/29 04:07:17;;;;;;;;;;;;;;;;;;;;;
2024/02/29 04:10:14;;;;;;;;;9.33;7.00;;;;;16.45;70.64;101341.81;146619;583;47016;-73
2024/02/29 04:13:17;;;;;;;;;7.00;7.00;;;;;16.48;70.07;101351.47;146622;656;47020;-72
2024/02/29 04:16:17;;;;;;;;;6.67;6.33;;;;;16.51;69.56;101342.03;146614;613;48012;-72
2024/02/29 04:19:33;;;;;;;;;7.67;6.67;;;;;16.51;68.43;101343.75;146625;565;45020;-71
2024/02/29 04:22:40;;;;;;;;;5.50;5.50;;;;;16.57;68.43;101359.69;146618;640;46017;-71
2024/02/29 04:25:36;;;;;;;;;7.75;5.25;;;;;16.60;67.39;101336.22;146622;611;46020;-66
2024/02/29 04:28:45;;;;;;;;;7.00;5.67;;;;;16.63;67.60;101336.34;146617;622;46016;-67
2024/02/29 04:31:59;;;;;;;;;5.50;5.00;;;;;16.62;65.68;101339.81;146620;672;46020;-67
2024/02/29 04:34:56;;;;;;;;;10.33;10.33;;;;;16.66;66.42;101335.56;146620;672;46012;-68
2024/02/29 04:38:09;;;;;;;;;9.67;8.33;;;;;16.66;65.84;101333.84;146617;571;46021;-67
2024/02/29 04:41:26;;;;;;;;;7.67;7.33;;;;;16.65;65.80;101337.31;146617;563;46016;-68
2024/02/29 04:44:25;;;;;;;;;12.33;8.00;;;;;16.65;66.01;101339.91;146623;635;46012;-67
2024/02/29 04:47:27;;;;;;;;;10.00;8.00;;;;;16.67;66.53;101337.38;146615;641;47032;-69
2024/02/29 04:50:31;;;;;;;;;8.75;7.00;;;;;16.62;67.02;101340.69;146620;577;48010;-70
2024/02/29 04:53:42;;;;;;;;;9.75;8.00;;;;;16.61;66.38;101332.81;146619;669;46012;-68
2024/02/29 04:56:38;;;;;;;;;7.67;7.67;;;;;16.57;66.09;101333.50;146618;607;47010;-66
2024/02/29 04:59:44;;;;;;;;;9.00;6.25;;;;;16.52;65.67;101337.69;146618;674;46016;-66
2024/02/29 05:02:53;;;;;;;;;10.00;7.00;;;;;16.52;66.31;101346.44;146618;629;48010;-71
2024/02/29 05:05:49;;;;;;;;;11.50;9.00;;;;;16.51;65.07;101346.38;146618;629;46014;-68
2024/02/29 05:08:44;;;;;;;;;7.00;6.00;;;;;16.51;64.79;101347.28;146623;618;46020;-69
2024/02/29 05:11:42;;;;;;;;;9.00;8.00;;;;;16.47;65.28;101340.12;146616;641;46016;-69
2024/02/29 05:14:39;;;;;;;;;12.50;9.50;;;;;16.44;65.26;101353.09;146619;671;46021;-69
2024/02/29 05:17:37;;;;;;;;;8.00;6.50;;;;;16.46;65.57;101345.31;146617;656;47014;-69
2024/02/29 05:20:41;;;;;;;;;12.00;9.75;;;;;16.26;65.37;101308.84;146623;603;46010;-72
2024/02/29 05:23:39;;;;;;;;;9.00;8.00;;;;;16.48;64.31;101331.47;146616;665;47012;-71
2024/02/29 05:26:44;;;;;;;;;;;;;;;;;;;;;
2024/02/29 05:29:42;;;;;;;;;11.25;9.75;;;;;16.53;63.95;101329.88;146615;637;46915;-71
2024/02/29 05:32:48;;;;;;;;;7.00;7.00;;;;;16.54;63.05;101336.94;146622;671;46010;-71
2024/02/29 05:35:51;;;;;;;;;10.00;8.75;;;;;16.57;62.89;101341.34;146621;622;46015;-72
2024/02/29 05:38:50;;;;;;;;;8.75;8.25;;;;;16.62;62.80;101331.94;146618;639;46912;-71
2024/02/29 05:41:51;;;;;;;;;9.00;8.75;;;;;16.62;63.69;101335.47;146618;606;46016;-68
2024/02/29 05:44:54;;;;;;;;;6.75;5.75;;;;;16.63;62.90;101363.44;146621;570;47010;-68
2024/02/29 05:47:58;;;;;;;;;8.75;8.00;;;;;16.69;62.62;101328.72;146618;578;46012;-70
2024/02/29 05:51:11;;;;;;;;;11.00;10.75;;;;;16.72;62.66;101313.09;146626;633;45574;-68
2024/02/29 05:54:19;;;;;;;;;10.50;8.00;;;;;16.83;62.63;101339.72;146616;666;46016;-69
2024/02/29 05:57:30;;;;;;;;;10.50;10.50;;;;;16.91;63.40;101343.50;146621;688;46013;-71
2024/02/29 06:00:30;;;;;;;;;9.00;8.00;;;;;17.01;64.46;101321.16;146614;644;46016;-69
2024/02/29 06:03:25;;;;;;;;;11.50;8.25;;;;;17.13;63.68;101331.16;146616;561;47010;-68
2024/02/29 06:06:35;;;;;;;;;12.00;10.00;;;;;17.19;64.33;101339.22;146617;571;46017;-68
2024/02/29 06:09:40;;;;;;;;;9.50;8.75;;;;;17.25;64.42;101336.81;146619;625;46020;-66
2024/02/29 06:12:48;;;;;;;;;15.50;13.00;;;;;17.25;65.20;101356.03;146615;567;46017;-69
2024/02/29 06:15:44;;;;;;;;;11.00;9.75;;;;;17.14;65.34;101373.13;146619;604;46010;-65
2024/02/29 06:18:56;;;;;;;;;16.50;12.00;;;;;17.09;66.33;101324.91;146622;665;45016;-68
2024/02/29 06:21:52;;;;;;;;;11.75;10.00;;;;;17.17;66.41;101338.28;146617;576;45020;-68
2024/02/29 06:24:49;;;;;;;;;10.50;10.00;;;;;17.17;65.34;101331.31;146612;574;47016;-69
2024/02/29 06:27:50;;;;;;;;;13.00;10.50;;;;;17.13;66.70;101326.78;146617;576;46021;-68
2024/02/29 06:30:53;;;;;;;;;12.75;11.25;;;;;17.06;67.03;101358.87;146614;635;46016;-68
2024/02/29 06:33:58;;;;;;;;;8.25;7.25;;;;;16.99;66.58;101362.13;146620;564;45020;-73
2024/02/29 06:36:50;;;;;;;;;11.75;11.25;;;;;17.00;66.94;101354.28;146617;575;46014;-71
2024/02/29 06:39:56;;;;;;;;;12.50;11.50;;;;;16.95;66.30;101365.47;146620;569;46010;-74
2024/02/29 06:42:50;;;;;;;;;12.50;10.50;;;;;16.90;67.60;101377.50;146620;716;46014;-77
2024/02/29 06:45:51;;;;;;;;;14.25;11.50;;;;;16.92;68.09;101375.84;146619;696;46020;-74
2024/02/29 06:48:51;;;;;;;;;12.50;10.25;;;;;16.89;67.97;101352.16;146617;651;45914;-73
2024/02/29 06:51:51;;;;;;;;;12.75;10.00;;;;;17.09;68.04;101356.34;146620;564;46020;-79
2024/02/29 06:54:49;;;;;;;;;11.50;10.00;;;;;17.15;67.83;101398.50;146613;579;47012;-74
2024/02/29 06:57:48;;;;;;;;;11.00;9.50;;;;;17.21;67.49;101392.59;146618;569;46021;-74
2024/02/29 07:00:43;;;;;;;;;11.25;10.00;;;;;17.28;67.65;101394.56;146618;565;46012;-70
2024/02/29 07:03:45;;;;;;;;;13.50;10.25;;;;;17.35;68.18;101387.81;146621;570;46010;-71
2024/02/29 07:06:49;;;;;;;;;11.25;10.00;;;;;17.43;67.37;101388.97;146614;696;47014;-70
2024/02/29 07:09:54;;;;;;;;;9.50;9.50;;;;;17.42;68.27;101388.09;146617;602;46020;-70
2024/02/29 07:12:52;;;;;;;;;12.00;12.00;;;;;17.42;67.42;101450.13;146615;564;46016;-71
2024/02/29 07:16:04;;;;;;;;;;;;;;;;;;;;;
2024/02/29 07:19:00;;;;;;;;;14.75;13.25;;;;;17.38;67.79;101396.66;146617;586;46017;-67
2024/02/29 07:22:12;;;;;;;;;13.00;13.00;;;;;17.43;67.51;101376.75;146619;704;46010;-65
2024/02/29 07:25:19;;;;;;;;;14.75;12.00;;;;;17.58;67.35;101386.88;146615;574;46912;-72
2024/02/29 07:28:32;;;;;;;;;10.00;10.00;;;;;17.60;66.65;101379.94;146625;611;45021;-69
2024/02/29 07:31:36;;;;;;;;;15.25;13.00;;;;;17.62;67.38;101378.25;146613;588;47914;-74
2024/02/29 07:34:40;;;;;;;;;14.00;12.75;;;;;17.59;66.70;101379.87;146621;590;46011;-69
2024/02/29 07:37:39;;;;;;;;;15.75;14.00;;;;;17.61;66.04;101359.84;146620;631;46012;-71
2024/02/29 07:40:39;;;;;;;;;20.00;14.00;;;;;17.57;66.70;101363.19;146619;598;46010;-71
2024/02/29 07:43:45;;;;;;;;;14.25;13.50;;;;;17.65;66.67;101382.72;146619;651;45017;-72
2024/02/29 07:47:00;;;;;;;;;14.00;12.50;;;;;17.58;65.27;101372.87;146621;671;46010;-71
2024/02/29 07:50:22;;;;;;;;;12.33;10.00;;;;;17.58;66.10;101365.00;146618;624;46012;-70
2024/02/29 07:53:22;;;;;;;;;13.75;11.50;;;;;17.66;65.93;101346.06;146621;628;45020;-72
2024/02/29 07:56:18;;;;;;;;;11.75;10.25;;;;;17.83;65.11;101364.09;146619;712;45914;-70
2024/02/29 07:59:36;;;;;;;;;14.00;11.00;;;;;18.09;65.54;101368.41;146619;633;47020;-72
2024/02/29 08:02:48;;;;;;;;;13.75;11.00;;;;;18.37;64.78;101371.88;146617;694;46014;-68
2024/02/29 08:05:49;;;;;;;;;13.25;11.75;;;;;18.65;64.39;101373.56;146617;608;46021;-69
2024/02/29 08:08:46;;;;;;;;;13.00;11.50;;;;;18.88;63.43;101362.00;146615;563;46016;-69
2024/02/29 08:11:41;;;;;;;;;11.00;11.00;;;;;19.09;62.76;101374.81;146618;707;46021;-70
2024/02/29 08:14:35;;;;;;;;;14.75;12.00;;;;;19.24;61.94;101366.47;146616;582;46012;-69
2024/02/29 08:17:34;;;;;;;;;13.75;13.25;;;;;19.28;60.99;101357.81;146619;641;47012;-70
2024/02/29 08:20:43;;;;;;;;;12.67;11.67;;;;;19.28;60.05;101370.97;146615;583;46016;-71
2024/02/29 08:23:53;;;;;;;;;13.00;11.67;;;;;19.08;59.53;101359.03;146619;570;46020;-69
2024/02/29 08:26:49;;;;;;;;;15.67;11.00;;;;;18.89;60.08;101342.75;146615;584;46017;-70
2024/02/29 08:29:48;;;;;;;;;10.75;10.75;;;;;18.75;60.12;101351.97;146621;634;46010;-70
2024/02/29 08:33:02;;;;;;;;;10.75;9.25;;;;;18.70;60.78;101336.06;146611;587;46016;-71
2024/02/29 08:35:56;;;;;;;;;13.00;12.00;;;;;18.76;60.62;101355.53;146617;593;46021;-70
2024/02/29 08:38:52;;;;;;;;;14.00;12.25;;;;;18.81;61.59;101361.78;146614;714;46034;-70
2024/02/29 08:41:54;;;;;;;;;15.75;13.50;;;;;18.80;61.41;101373.16;146618;612;46012;-72
2024/02/29 08:44:47;;;;;;;;;16.50;11.75;;;;;18.91;60.65;101362.09;146614;633;46027;-71
2024/02/29 08:47:43;;;;;;;;;14.75;12.00;;;;;18.93;60.01;101362.13;146616;634;46020;-72
2024/02/29 08:50:47;;;;;;;;;12.00;11.00;;;;;18.93;60.61;101355.13;146618;626;46916;-69
2024/02/29 08:53:51;;;;;;;;;14.00;12.75;;;;;18.88;61.57;101380.41;146613;610;46010;-70
2024/02/29 08:56:45;;;;;;;;;16.00;12.50;;;;;18.77;60.82;101358.19;146617;571;46012;-71
2024/02/29 08:59:44;;;;;;;;;12.75;11.00;;;;;18.77;62.53;101360.81;146614;674;46020;-69
2024/02/29 09:02:46;;;;;;;;;12.00;11.00;;;;;18.83;61.05;101371.50;146609;647;46016;-71
2024/02/29 09:05:41;;;;;;;;;15.75;14.00;;;;;18.82;61.30;101368.84;146620;603;45030;-69
2024/02/29 09:08:39;;;;;;;;;18.00;14.50;;;;;18.80;61.34;101355.66;146613;615;46016;-70
2024/02/29 09:11:44;;;;;;;;;12.00;10.00;;;;;18.72;62.14;101346.63;146621;597;46021;-71
2024/02/29 09:14:40;;;;;;;;;12.75;12.75;;;;;18.67;61.95;101359.63;146617;580;46014;-70
2024/02/29 09:17:45;;;;;;;;;14.00;13.25;;;;;18.75;61.90;101343.22;146612;669;46011;-71
2024/02/29 09:20:42;;;;;;;;;15.00;13.00;;;;;18.75;61.34;101320.47;146620;689;45017;-73
2024/02/29 09:23:48;;;;;;;;;13.75;13.00;;;;;18.79;59.96;101318.84;146611;628;46020;-69
2024/02/29 09:26:51;;;;;;;;;14.75;13.00;;;;;18.81;60.17;101330.25;146613;579;47012;-70
2024/02/29 09:29:47;;;;;;;;;11.00;11.00;;;;;18.76;59.03;101313.50;146621;727;46010;-73
2024/02/29 09:32:52;;;;;;;;;9.75;9.00;;;;;18.68;58.69;101315.88;146615;707;46016;-69
2024/02/29 09:35:57;;;;;;;;;13.00;12.25;;;;;18.60;57.89;101302.53;146622;647;46020;-72
2024/02/29 09:38:56;;;;;;;;;15.50;12.50;;;;;18.45;58.57;101299.47;146608;569;47916;-71
2024/02/29 09:42:01;;;;;;;;;14.00;14.00;;;;;18.54;58.77;101318.13;146613;652;46021;-70
2024/02/29 09:44:56;;;;;;;;;14.75;13.25;;;;;17.86;58.16;101207.66;146616;588;46016;-69
2024/02/29 09:48:08;;;;;;;;;13.50;10.25;;;;;18.60;58.09;101322.66;146616;650;46020;-69
2024/02/29 09:51:30;;;;;;;;;;;;;;;;;;;;;
2024/02/29 09:54:29;;;;;;;;;14.50;13.25;;;;;18.59;58.49;101350.62;146612;592;46010;-69
2024/02/29 09:57:39;;;;;;;;;14.00;12.50;;;;;18.58;58.86;101303.34;146613;653;46043;-71
2024/02/29 10:00:47;;;;;;;;;16.25;13.75;;;;;18.53;58.89;101312.81;146617;610;46020;-69
2024/02/29 10:03:52;;;;;;;;;16.25;15.50;;;;;18.61;59.13;101287.66;146614;573;46016;-70
2024/02/29 10:06:50;;;;;;;;;12.50;11.50;;;;;18.60;58.15;101272.75;146620;576;46020;-70
2024/02/29 10:09:52;;;;;;;;;18.25;14.75;;;;;18.72;58.42;101266.91;146614;698;46016;-69
2024/02/29 10:13:06;;;;;;;;;11.25;11.00;;;;;18.74;57.58;101281.03;146620;734;46010;-68
2024/02/29 10:16:02;;;;;;;;;12.75;11.75;;;;;18.89;57.92;101260.41;146618;638;46012;-70
2024/02/29 10:19:04;;;;;;;;;15.75;11.75;;;;;18.98;55.86;101241.38;146617;697;47021;-71
2024/02/29 10:22:04;;;;;;;;;14.25;12.00;;;;;19.06;56.68;101250.31;146617;671;46014;-69
2024/02/29 10:25:08;;;;;;;;;12.00;11.00;;;;;19.04;56.08;101242.41;146611;635;46020;-68
2024/02/29 10:28:16;;;;;;;;;12.75;11.50;;;;;19.12;56.41;101256.63;146615;571;46012;-70
2024/02/29 10:31:11;;;;;;;;;7.00;6.00;;;;;19.02;51.89;101299.28;146618;585;46020;-69
2024/02/29 10:34:24;;;;;;;;;13.50;10.00;;;;;19.08;54.11;101270.53;146618;572;46012;-69
2024/02/29 10:37:22;;;;;;;;;12.00;11.25;;;;;19.00;53.81;101272.06;146615;575;46020;-69
2024/02/29 10:40:24;;;;;;;;;10.25;10.25;;;;;18.92;53.45;101257.88;146614;580;46017;-72
2024/02/29 10:43:21;;;;;;;;;12.00;12.00;;;;;18.89;52.09;101287.56;146619;587;46020;-70
2024/02/29 10:46:26;;;;;;;;;12.50;11.50;;;;;18.86;54.36;101253.34;146615;682;46016;-69
2024/02/29 10:49:37;;;;;;;;;11.75;10.00;;;;;18.84;53.76;101262.91;146619;592;46010;-70
2024/02/29 10:52:46;;;;;;;;;13.50;11.50;;;;;18.87;54.07;101254.22;146613;638;48012;-70
2024/02/29 10:56:13;;;;;;;;;11.50;9.50;;;;;18.78;54.86;101246.09;146611;572;46021;-70
2024/02/29 10:59:19;;;;;;;;;13.00;10.33;;;;;18.74;54.76;101225.88;146617;569;46016;-67
2024/02/29 11:02:23;;;;;;;;;7.67;7.67;;;;;18.55;53.90;101245.47;146618;611;46010;-69
2024/02/29 11:05:39;;;;;;;;;;;;;;;;;;;;;
2024/02/29 11:08:37;;;;;;;;;12.75;10.25;;;;;18.50;55.82;101226.94;146618;564;47010;-68
2024/02/29 11:11:39;;;;;;;;;12.00;11.75;;;;;18.50;55.42;101229.56;146615;658;46016;-71
2024/02/29 11:14:47;;;;;;;;;13.00;11.00;;;;;18.49;55.95;101221.66;146617;602;46020;-70
2024/02/29 11:17:54;;;;;;;;;12.00;10.75;;;;;18.75;57.08;101222.38;146612;630;46017;-69
2024/02/29 11:20:50;;;;;;;;;16.75;15.25;;;;;18.78;54.73;101218.09;146617;676;46020;-71
2024/02/29 11:23:45;;;;;;;;;11.50;11.50;;;;;18.85;56.89;101225.28;146613;695;47013;-69
2024/02/29 11:26:48;;;;;;;;;13.33;12.00;;;;;18.90;57.47;101235.91;146614;583;46020;-68
2024/02/29 11:29:52;;;;;;;;;12.25;11.50;;;;;18.85;57.27;101227.03;146617;639;46014;-70
2024/02/29 11:33:11;;;;;;;;;11.33;11.00;;;;;18.80;56.75;101253.19;146619;677;46011;-70
2024/02/29 11:36:23;;;;;;;;;14.67;13.33;;;;;18.70;54.53;101252.00;146613;576;48016;-70
2024/02/29 11:39:32;;;;;;;;;15.75;14.75;;;;;18.63;55.37;101246.56;146616;574;46020;-71
2024/02/29 11:42:26;;;;;;;;;13.00;11.25;;;;;18.63;56.17;101254.47;146614;653;46016;-70
2024/02/29 11:45:31;;;;;;;;;12.25;9.50;;;;;18.49;54.66;101245.31;146616;563;46020;-70
2024/02/29 11:48:36;;;;;;;;;10.75;8.00;;;;;18.44;55.15;101246.06;146618;642;46016;-69
2024/02/29 11:51:29;;;;;;;;;8.50;6.00;;;;;18.39;55.77;101233.66;146618;681;47010;-69
2024/02/29 11:54:29;;;;;;;;;11.00;9.00;;;;;18.27;55.27;101246.44;146615;638;46017;-68
2024/02/29 11:57:28;;;;;;;;;14.25;11.00;;;;;18.26;56.04;101242.94;146616;576;46010;-69
2024/02/29 12:00:34;;;;;;;;;13.50;11.00;;;;;18.27;56.96;101241.19;146612;563;48012;-71
2024/02/29 12:03:56;;;;;;;;;14.00;13.00;;;;;18.26;54.68;101240.31;146616;624;47010;-69
2024/02/29 12:06:51;;;;;;;;;14.75;14.50;;;;;18.30;56.34;101220.28;146608;582;47012;-70
2024/02/29 12:09:59;;;;;;;;;15.75;13.25;;;;;18.34;56.13;101190.63;146617;588;46011;-68
2024/02/29 12:13:04;;;;;;;;;19.50;16.00;;;;;18.44;56.71;101206.69;146612;586;47016;-68
2024/02/29 12:15:58;;;;;;;;;20.25;16.75;;;;;18.50;56.48;101216.44;146618;647;46013;-70
2024/02/29 12:19:04;;;;;;;;;13.00;11.00;;;;;18.00;55.94;101145.09;146614;569;46016;-69
2024/02/29 12:21:58;;;;;;;;;19.25;15.25;;;;;18.53;56.27;101208.66;146618;564;46010;-70
2024/02/29 12:25:23;;;;;;;;;24.00;22.75;;;;;18.43;55.98;101211.88;146617;611;46013;-69
2024/02/29 12:28:25;;;;;;;;;13.75;12.50;;;;;18.42;56.10;101213.63;146611;682;46020;-68
2024/02/29 12:31:21;;;;;;;;;19.50;15.75;;;;;18.40;57.40;101220.56;146615;600;46017;-71
2024/02/29 12:34:23;;;;;;;;;16.25;13.25;;;;;18.36;57.12;101213.47;146615;675;46012;-68
2024/02/29 12:37:05;;;;;;;;;13.25;12.50;;;;;18.33;56.80;101215.12;146710;577;46014;-69
2024/02/29 12:40:00;;;;;;;;;15.00;13.75;;;;;18.28;57.15;101203.59;146614;612;46016;-71
2024/02/29 12:43:00;;;;;;;;;17.50;16.00;;;;;18.29;56.53;101213.25;146610;586;48020;-72
2024/02/29 12:45:55;;;;;;;;;19.25;15.25;;;;;18.23;57.63;101225.34;146608;569;46016;-71
2024/02/29 12:48:48;;;;;;;;;13.25;12.00;;;;;18.16;57.62;101227.75;146619;655;45048;-70
2024/02/29 12:51:58;;;;;;;;;12.25;11.25;;;;;18.10;57.59;101246.87;146612;629;46016;-70
2024/02/29 12:54:54;;;;;;;;;15.75;14.00;;;;;18.14;58.08;101222.47;146614;615;46020;-69
2024/02/29 12:57:53;;;;;;;;;14.50;13.00;;;;;18.18;57.38;101233.94;146611;633;47012;-70
2024/02/29 13:00:57;;;;;;;;;14.00;13.33;;;;;18.11;57.80;101238.13;146613;581;46021;-66
2024/02/29 13:03:52;;;;;;;;;13.00;11.75;;;;;18.14;58.05;101245.22;146610;725;48913;-70
2024/02/29 13:06:49;;;;;;;;;15.75;13.00;;;;;18.16;58.57;101236.53;146613;584;47011;-71
2024/02/29 13:09:54;;;;;;;;;15.50;14.25;;;;;18.13;59.03;101230.28;146614;572;46014;-69
2024/02/29 13:13:17;;;;;;;;;16.50;15.25;;;;;18.12;57.60;101218.91;146617;585;46010;-71
2024/02/29 13:16:14;;;;;;;;;17.25;16.75;;;;;18.05;58.61;101232.72;146609;586;47012;-71
2024/02/29 13:19:14;;;;;;;;;13.50;13.25;;;;;18.05;58.45;101224.84;146616;569;47020;-68
2024/02/29 13:22:18;;;;;;;;;16.50;15.00;;;;;17.98;59.05;101234.28;146610;579;46013;-70
2024/02/29 13:25:13;;;;;;;;;14.75;14.25;;;;;16.76;59.95;101015.59;146617;564;46020;-69
2024/02/29 13:28:14;;;;;;;;;16.75;14.50;;;;;17.91;60.31;101234.94;146607;649;47013;-69
2024/02/29 13:31:17;;;;;;;;;17.75;15.00;;;;;17.84;60.89;101222.47;146612;609;46021;-68
2024/02/29 13:34:16;;;;;;;;;18.25;16.00;;;;;17.90;61.10;101233.13;146612;613;46016;-69
2024/02/29 13:37:25;;;;;;;;;13.00;11.00;;;;;17.82;60.88;101234.66;146609;596;46020;-68
2024/02/29 13:40:31;;;;;;;;;14.50;13.75;;;;;16.32;62.00;100971.50;146607;569;46012;-70
2024/02/29 13:43:21;;;;;;;;;16.50;15.25;;;;;17.76;62.79;101229.22;146703;565;44033;-68
2024/02/29 13:46:24;;;;;;;;;15.25;15.00;;;;;17.72;61.97;101228.19;146623;663;45014;-69
2024/02/29 13:49:19;;;;;;;;;19.00;18.25;;;;;17.72;62.73;101243.03;146624;610;46020;-69
2024/02/29 13:52:21;;;;;;;;;18.00;16.50;;;;;17.65;63.19;101214.88;146622;563;47012;-68
2024/02/29 13:55:23;;;;;;;;;23.25;19.75;;;;;17.58;64.53;101220.78;146625;617;46010;-69
2024/02/29 13:58:28;;;;;;;;;17.50;15.25;;;;;17.53;64.61;101200.53;146619;598;46016;-69
2024/02/29 14:01:27;;;;;;;;;17.00;17.00;;;;;17.51;64.55;101191.75;146623;579;46012;-70
2024/02/29 14:04:36;;;;;;;;;16.75;16.25;;;;;17.50;65.40;101173.31;146613;564;46016;-67
2024/02/29 14:07:48;;;;;;;;;18.50;15.25;;;;;17.47;65.12;101158.38;146621;586;46020;-70
2024/02/29 14:10:53;;;;;;;;;;;;;;;;;;;;;